createdAt,value
2019-05-25T00:00:23.427Z,99879.70
2019-05-25T00:02:53.573Z,99881.27
2019-05-25T00:05:23.672Z,99882.13
2019-05-25T00:07:53.800Z,99883.80
2019-05-25T00:10:24.019Z,99882.10
2019-05-25T00:12:54.166Z,99887.84
2019-05-25T00:15:24.281Z,99883.55
2019-05-25T00:17:54.403Z,99885.15
2019-05-25T00:20:24.606Z,99894.16
2019-05-25T00:22:55.850Z,99888.69
2019-05-25T00:25:25.971Z,99886.48
2019-05-25T00:27:56.098Z,99882.72
2019-05-25T00:30:26.293Z,99883.94
2019-05-25T00:35:33.013Z,99889.67
2019-05-25T00:38:03.158Z,99892.35
2019-05-25T00:40:33.287Z,99891.77
2019-05-25T00:43:03.412Z,99885.77
2019-05-25T00:45:33.554Z,99894.42
2019-05-25T00:48:03.766Z,99883.93
2019-05-25T00:50:33.886Z,99883.55
2019-05-25T00:53:04.055Z,99879.16
2019-05-25T00:55:34.183Z,99876.44
2019-05-25T00:58:04.522Z,99878.89
2019-05-25T01:00:34.742Z,99868.86
2019-05-25T01:03:05.139Z,99872.14
2019-05-25T01:05:35.266Z,99870.21
2019-05-25T01:08:05.410Z,99865.59
2019-05-25T01:10:35.521Z,99865.78
2019-05-25T01:13:05.652Z,99858.94
2019-05-25T01:15:35.786Z,99864.67
2019-05-25T01:18:05.924Z,99857.73
2019-05-25T01:20:36.148Z,99855.13
2019-05-25T01:23:06.436Z,99856.70
2019-05-25T01:25:36.566Z,99850.34
2019-05-25T01:28:06.710Z,99858.41
2019-05-25T01:30:36.824Z,99858.80
2019-05-25T01:33:06.964Z,99855.72
2019-05-25T01:35:37.084Z,99860.11
2019-05-25T01:38:07.232Z,99858.77
2019-05-25T01:40:37.346Z,99853.39
2019-05-25T01:43:07.482Z,99859.85
2019-05-25T01:45:37.632Z,99862.80
2019-05-25T01:48:07.798Z,99860.02
2019-05-25T01:50:37.924Z,99861.36
2019-05-25T01:53:08.074Z,99860.48
2019-05-25T01:55:38.207Z,99858.28
2019-05-25T01:58:08.338Z,99856.17
2019-05-25T02:00:38.459Z,99860.70
2019-05-25T02:03:08.608Z,99859.09
2019-05-25T02:05:38.710Z,99866.63
2019-05-25T02:08:08.865Z,99861.88
2019-05-25T02:10:38.988Z,99864.03
2019-05-25T02:13:09.140Z,99859.59
2019-05-25T02:15:39.263Z,99863.14
2019-05-25T02:18:09.399Z,99867.17
2019-05-25T02:20:39.533Z,99877.39
2019-05-25T02:23:09.694Z,99874.16
2019-05-25T02:25:39.824Z,99877.03
2019-05-25T02:28:09.946Z,99877.30
2019-05-25T02:30:40.056Z,99877.73
2019-05-25T02:33:10.268Z,99877.47
2019-05-25T02:35:40.386Z,99879.14
2019-05-25T02:38:10.796Z,99880.70
2019-05-25T02:40:40.938Z,99880.66
2019-05-25T02:43:11.363Z,99868.51
2019-05-25T02:45:41.478Z,99879.53
2019-05-25T02:48:12.637Z,99884.52
2019-05-25T02:50:42.763Z,99881.24
2019-05-25T02:53:12.886Z,99884.52
2019-05-25T02:55:43.010Z,99881.31
2019-05-25T02:58:13.154Z,99883.88
2019-05-25T03:00:43.378Z,99878.00
2019-05-25T03:03:13.555Z,99877.73
2019-05-25T03:05:43.909Z,99877.81
2019-05-25T03:08:14.025Z,99878.78
2019-05-25T03:10:45.909Z,99884.61
2019-05-25T03:13:16.750Z,99885.55
2019-05-25T03:15:46.880Z,99891.56
2019-05-25T03:18:17.055Z,99892.36
2019-05-25T03:20:47.176Z,99897.47
2019-05-25T03:23:17.322Z,99900.88
2019-05-25T03:25:49.890Z,99903.84
2019-05-25T03:28:19.451Z,99902.23
2019-05-25T03:30:50.629Z,99905.09
2019-05-25T03:33:20.847Z,99909.95
2019-05-25T03:35:50.965Z,99911.81
2019-05-25T03:38:21.184Z,99913.14
2019-05-25T03:40:51.313Z,99908.47
2019-05-25T03:43:21.452Z,99909.52
2019-05-25T03:45:51.585Z,99913.36
2019-05-25T03:48:21.928Z,99917.76
2019-05-25T03:50:52.072Z,99920.39
2019-05-25T03:53:22.206Z,99916.94
2019-05-25T03:56:04.763Z,99918.80
2019-05-25T03:58:25.237Z,99914.12
2019-05-25T04:00:55.344Z,99921.91
2019-05-25T04:03:25.466Z,99917.45
2019-05-25T04:05:55.600Z,99926.36
2019-05-25T04:08:25.734Z,99929.05
2019-05-25T04:10:55.862Z,99927.15
2019-05-25T04:13:25.994Z,99927.02
2019-05-25T04:15:56.106Z,99922.77
2019-05-25T04:18:26.228Z,99925.05
2019-05-25T04:20:56.359Z,99929.37
2019-05-25T04:23:26.496Z,99940.42
2019-05-25T04:25:56.606Z,99937.11
2019-05-25T04:28:26.852Z,99945.19
2019-05-25T04:30:56.975Z,99942.63
2019-05-25T04:33:27.415Z,99945.83
2019-05-25T04:35:57.529Z,99948.59
2019-05-25T04:38:27.654Z,99946.19
2019-05-25T04:40:57.766Z,99950.44
2019-05-25T04:43:27.901Z,99952.14
2019-05-25T04:45:58.018Z,99958.98
2019-05-25T04:48:28.313Z,99957.28
2019-05-25T04:50:58.461Z,99949.77
2019-05-25T04:53:28.591Z,99954.81
2019-05-25T04:55:58.812Z,99965.88
2019-05-25T04:58:28.970Z,99961.05
2019-05-25T05:00:59.101Z,99964.53
2019-05-25T05:03:30.604Z,99962.48
2019-05-25T05:06:01.361Z,99971.64
2019-05-25T05:08:34.967Z,99972.84
2019-05-25T05:11:03.365Z,99975.97
2019-05-25T05:13:33.493Z,99978.66
2019-05-25T05:16:03.621Z,99981.93
2019-05-25T05:18:33.784Z,99984.63
2019-05-25T05:21:03.942Z,99978.73
2019-05-25T05:23:34.079Z,99982.21
2019-05-25T05:26:04.330Z,99979.45
2019-05-25T05:28:34.466Z,99982.57
2019-05-25T05:31:05.591Z,99984.20
2019-05-25T05:33:35.796Z,99987.14
2019-05-25T05:36:06.085Z,99987.34
2019-05-25T05:38:37.534Z,99992.80
2019-05-25T05:41:09.260Z,99993.37
2019-05-25T05:43:39.897Z,99992.09
2019-05-25T05:46:12.296Z,99998.85
2019-05-25T05:48:45.664Z,100003.95
2019-05-25T05:51:18.695Z,100005.78
2019-05-25T05:53:53.078Z,100013.30
2019-05-25T05:56:24.590Z,100008.06
2019-05-25T05:58:54.767Z,100009.82
2019-05-25T06:01:24.942Z,100004.69
2019-05-25T06:03:55.100Z,100004.13
2019-05-25T06:06:25.221Z,100009.59
2019-05-25T06:08:55.364Z,100011.84
2019-05-25T06:11:25.513Z,100007.15
2019-05-25T06:13:55.674Z,100021.41
2019-05-25T06:16:25.802Z,100019.66
2019-05-25T06:18:55.965Z,100025.34
2019-05-25T06:21:26.109Z,100023.27
2019-05-25T06:23:56.257Z,100024.20
2019-05-25T06:26:26.496Z,100027.78
2019-05-25T06:28:56.657Z,100028.16
2019-05-25T06:31:26.776Z,100032.42
2019-05-25T06:33:57.051Z,100033.13
2019-05-25T06:36:27.199Z,100036.30
2019-05-25T06:38:57.386Z,100034.74
2019-05-25T06:41:27.584Z,100032.89
2019-05-25T06:43:57.732Z,100043.26
2019-05-25T06:46:27.879Z,100034.86
2019-05-25T06:48:58.044Z,100038.56
2019-05-25T06:51:28.183Z,100047.22
2019-05-25T06:53:58.339Z,100049.22
2019-05-25T06:56:28.540Z,100053.89
2019-05-25T06:58:58.880Z,100044.52
2019-05-25T07:01:29.007Z,100050.63
2019-05-25T07:03:59.226Z,100052.48
2019-05-25T07:06:29.402Z,100054.34
2019-05-25T07:08:59.544Z,100060.24
2019-05-25T07:11:29.689Z,100057.90
2019-05-25T07:13:59.939Z,100056.90
2019-05-25T07:16:30.097Z,100060.04
2019-05-25T07:19:00.255Z,100063.60
2019-05-25T07:21:30.388Z,100065.33
2019-05-25T07:24:00.534Z,100066.78
2019-05-25T07:26:30.673Z,100057.62
2019-05-25T07:29:00.811Z,100067.56
2019-05-25T07:31:30.983Z,100062.80
2019-05-25T07:34:01.101Z,100066.16
2019-05-25T07:36:31.914Z,100064.48
2019-05-25T07:39:03.151Z,100067.77
2019-05-25T07:41:33.278Z,100066.45
2019-05-25T07:44:03.534Z,100072.98
2019-05-25T07:46:33.659Z,100085.82
2019-05-25T07:49:03.835Z,100087.56
2019-05-25T07:51:35.036Z,100075.33
2019-05-25T07:54:05.193Z,100085.36
2019-05-25T07:56:35.326Z,100079.55
2019-05-25T07:59:05.480Z,100079.57
2019-05-25T08:01:35.613Z,100093.52
2019-05-25T08:04:05.760Z,100090.78
2019-05-25T08:06:35.895Z,100100.12
2019-05-25T08:09:07.913Z,100103.98
2019-05-25T08:11:38.039Z,100104.16
2019-05-25T08:14:08.511Z,100108.80
2019-05-25T08:16:38.780Z,100109.30
2019-05-25T08:19:09.011Z,100110.98
2019-05-25T08:21:39.193Z,100114.16
2019-05-25T08:24:11.234Z,100121.19
2019-05-25T08:26:41.351Z,100117.59
2019-05-25T08:29:11.483Z,100119.24
2019-05-25T08:31:41.603Z,100123.88
2019-05-25T08:34:11.817Z,100124.50
2019-05-25T08:36:41.947Z,100131.94
2019-05-25T08:39:12.088Z,100132.05
2019-05-25T08:41:45.322Z,100139.60
2019-05-25T08:44:14.069Z,100133.65
2019-05-25T08:46:44.195Z,100134.53
2019-05-25T08:49:14.396Z,100148.67
2019-05-25T08:51:44.516Z,100142.97
2019-05-25T08:54:14.664Z,100142.97
2019-05-25T08:56:44.784Z,100148.47
2019-05-25T08:59:14.908Z,100150.88
2019-05-25T09:01:45.061Z,100152.63
2019-05-25T09:04:15.202Z,100149.25
2019-05-25T09:06:45.327Z,100143.67
2019-05-25T09:09:15.487Z,100154.69
2019-05-25T09:11:45.678Z,100154.70
2019-05-25T09:14:15.766Z,100154.56
2019-05-25T09:16:45.907Z,100157.95
2019-05-25T09:19:16.049Z,100160.64
2019-05-25T09:22:01.384Z,100163.89
2019-05-25T09:24:18.016Z,100169.28
2019-05-25T09:26:48.163Z,100170.63
2019-05-25T09:29:18.400Z,100175.38
2019-05-25T09:31:49.493Z,100171.59
2019-05-25T09:34:19.655Z,100181.07
2019-05-25T09:36:49.792Z,100178.37
2019-05-25T09:39:19.978Z,100178.89
2019-05-25T09:41:50.092Z,100186.77
2019-05-25T09:44:20.236Z,100183.20
2019-05-25T09:46:50.375Z,100191.70
2019-05-25T09:49:20.564Z,100185.23
2019-05-25T09:51:50.698Z,100191.78
2019-05-25T09:54:20.860Z,100194.59
2019-05-25T09:56:50.993Z,100201.88
2019-05-25T09:59:21.131Z,100197.05
2019-05-25T10:01:51.399Z,100196.68
2019-05-25T10:04:21.601Z,100191.92
2019-05-25T10:06:51.761Z,100190.40
2019-05-25T10:09:21.899Z,100194.88
2019-05-25T10:11:52.026Z,100196.39
2019-05-25T10:14:22.158Z,100200.98
2019-05-25T10:16:52.299Z,100208.58
2019-05-25T10:19:22.463Z,100207.48
2019-05-25T10:21:52.592Z,100202.16
2019-05-25T10:24:22.730Z,100208.42
2019-05-25T10:26:52.864Z,100212.98
2019-05-25T10:29:35.923Z,100210.78
2019-05-25T10:31:54.827Z,100208.28
2019-05-25T10:34:24.971Z,100211.16
2019-05-25T10:36:55.104Z,100206.57
2019-05-25T10:39:25.997Z,100211.39
2019-05-25T10:41:56.121Z,100216.69
2019-05-25T10:44:26.269Z,100221.32
2019-05-25T10:46:56.403Z,100217.58
2019-05-25T10:49:26.579Z,100212.38
2019-05-25T10:51:56.711Z,100211.13
2019-05-25T10:54:26.874Z,100218.60
2019-05-25T10:56:56.994Z,100218.09
2019-05-25T10:59:27.129Z,100219.63
2019-05-25T11:01:57.251Z,100220.88
2019-05-25T11:04:27.386Z,100214.92
2019-05-25T11:06:57.511Z,100210.65
2019-05-25T11:09:27.640Z,100204.19
2019-05-25T11:11:57.848Z,100203.36
2019-05-25T11:14:29.092Z,100208.77
2019-05-25T11:16:59.223Z,100206.48
2019-05-25T11:19:29.371Z,100216.41
2019-05-25T11:21:59.497Z,100206.11
2019-05-25T11:24:29.626Z,100207.37
2019-05-25T11:26:59.890Z,100205.52
2019-05-25T11:29:29.981Z,100205.34
2019-05-25T11:32:04.276Z,100204.08
2019-05-25T11:34:31.967Z,100210.02
2019-05-25T11:37:02.199Z,100204.44
2019-05-25T11:39:32.323Z,100221.02
2019-05-25T11:42:02.461Z,100208.65
2019-05-25T11:44:32.623Z,100212.18
2019-05-25T11:47:02.762Z,100216.45
2019-05-25T11:49:32.990Z,100218.84
2019-05-25T11:52:03.174Z,100216.13
2019-05-25T11:54:33.500Z,100223.23
2019-05-25T11:57:03.797Z,100224.27
2019-05-25T11:59:33.953Z,100218.10
2019-05-25T12:02:04.213Z,100222.63
2019-05-25T12:04:34.339Z,100220.05
2019-05-25T12:07:04.677Z,100220.53
2019-05-25T12:09:34.814Z,100227.33
2019-05-25T12:12:04.947Z,100217.17
2019-05-25T12:14:35.081Z,100219.19
2019-05-25T12:17:05.204Z,100222.45
2019-05-25T12:19:35.367Z,100225.27
2019-05-25T12:22:05.698Z,100226.73
2019-05-25T12:24:35.836Z,100229.45
2019-05-25T12:27:05.959Z,100230.32
2019-05-25T12:29:36.100Z,100227.66
2019-05-25T12:32:06.225Z,100227.45
2019-05-25T12:34:36.392Z,100233.39
2019-05-25T12:37:06.511Z,100235.09
2019-05-25T12:39:36.661Z,100232.50
2019-05-25T12:42:06.787Z,100231.76
2019-05-25T12:44:37.140Z,100228.52
2019-05-25T12:47:07.412Z,100233.45
2019-05-25T12:49:50.064Z,100236.44
2019-05-25T12:52:09.467Z,100225.70
2019-05-25T12:54:39.639Z,100227.67
2019-05-25T12:57:09.777Z,100230.75
2019-05-25T12:59:39.920Z,100229.89
2019-05-25T13:02:10.048Z,100227.04
2019-05-25T13:04:40.417Z,100228.06
2019-05-25T13:07:10.577Z,100233.89
2019-05-25T13:09:40.716Z,100233.45
2019-05-25T13:12:10.878Z,100239.42
2019-05-25T13:14:40.996Z,100237.73
2019-05-25T13:17:11.167Z,100239.52
2019-05-25T13:19:41.323Z,100239.67
2019-05-25T13:22:11.531Z,100241.81
2019-05-25T13:24:41.696Z,100244.92
2019-05-25T13:27:11.811Z,100241.81
2019-05-25T13:29:41.969Z,100236.67
2019-05-25T13:32:12.107Z,100241.66
2019-05-25T13:34:43.898Z,100234.33
2019-05-25T13:37:17.175Z,100232.45
2019-05-25T13:39:46.027Z,100225.38
2019-05-25T13:42:16.187Z,100218.45
2019-05-25T13:44:46.468Z,100223.58
2019-05-25T13:47:16.604Z,100217.46
2019-05-25T13:49:46.818Z,100216.58
2019-05-25T13:52:16.957Z,100208.21
2019-05-25T13:54:47.085Z,100202.39
2019-05-25T13:57:17.221Z,100203.94
2019-05-25T13:59:47.365Z,100196.97
2019-05-25T14:02:17.506Z,100208.75
2019-05-25T14:04:47.713Z,100210.53
2019-05-25T14:07:17.865Z,100206.55
2019-05-25T14:09:48.059Z,100199.65
2019-05-25T14:12:18.231Z,100201.94
2019-05-25T14:14:48.369Z,100200.91
2019-05-25T14:17:18.506Z,100194.50
2019-05-25T14:19:48.655Z,100195.33
2019-05-25T14:22:18.791Z,100196.61
2019-05-25T14:24:48.943Z,100200.79
2019-05-25T14:27:19.095Z,100203.19
2019-05-25T14:29:49.221Z,100211.34
2019-05-25T14:32:19.354Z,100202.14
2019-05-25T14:34:49.559Z,100197.52
2019-05-25T14:37:19.673Z,100196.73
2019-05-25T14:39:49.808Z,100200.48
2019-05-25T14:42:20.020Z,100198.73
2019-05-25T14:44:50.182Z,100193.09
2019-05-25T14:47:20.344Z,100184.61
2019-05-25T14:49:52.692Z,100180.70
2019-05-25T14:52:22.889Z,100175.78
2019-05-25T14:54:53.026Z,100177.63
2019-05-25T14:57:23.151Z,100174.12
2019-05-25T14:59:53.292Z,100175.42
2019-05-25T15:02:23.458Z,100169.91
2019-05-25T15:04:54.811Z,100173.30
2019-05-25T15:07:25.489Z,100176.67
2019-05-25T15:09:55.654Z,100169.94
2019-05-25T15:12:25.769Z,100170.84
2019-05-25T15:14:55.907Z,100172.36
2019-05-25T15:17:26.037Z,100181.98
2019-05-25T15:19:56.372Z,100188.08
2019-05-25T15:22:26.559Z,100182.44
2019-05-25T15:24:56.696Z,100178.94
2019-05-25T15:27:26.828Z,100187.30
2019-05-25T15:29:56.968Z,100182.16
2019-05-25T15:32:27.099Z,100180.24
2019-05-25T15:34:57.239Z,100177.60
2019-05-25T15:37:27.423Z,100166.14
2019-05-25T15:39:57.609Z,100168.97
2019-05-25T15:42:27.730Z,100165.22
2019-05-25T15:44:57.899Z,100162.27
2019-05-25T15:47:28.023Z,100156.25
2019-05-25T15:49:58.220Z,100159.28
2019-05-25T15:52:28.336Z,100148.04
2019-05-25T15:54:58.492Z,100145.53
2019-05-25T15:57:28.634Z,100154.55
2019-05-25T15:59:58.782Z,100144.34
2019-05-25T16:02:36.797Z,100136.49
2019-05-25T16:05:01.008Z,100130.52
2019-05-25T16:07:32.604Z,100128.80
2019-05-25T16:10:02.805Z,100131.22
2019-05-25T16:12:32.978Z,100126.25
2019-05-25T16:15:03.116Z,100125.25
2019-05-25T16:17:33.359Z,100122.04
2019-05-25T16:20:03.617Z,100123.77
2019-05-25T16:22:34.918Z,100123.41
2019-05-25T16:25:05.924Z,100120.83
2019-05-25T16:27:37.031Z,100127.34
2019-05-25T16:30:07.506Z,100123.09
2019-05-25T16:33:09.879Z,100115.05
2019-05-25T16:35:09.639Z,100121.76
2019-05-25T16:37:40.259Z,100119.98
2019-05-25T16:40:10.735Z,100116.41
2019-05-25T16:42:40.932Z,100120.00
2019-05-25T16:45:11.775Z,100117.42
2019-05-25T16:47:41.913Z,100115.40
2019-05-25T16:50:14.963Z,100108.58
2019-05-25T16:52:44.626Z,100111.84
2019-05-25T16:55:15.357Z,100111.48
2019-05-25T16:57:45.492Z,100106.53
2019-05-25T17:00:17.288Z,100102.44
2019-05-25T17:02:47.425Z,100100.05
2019-05-25T17:05:17.669Z,100089.87
2019-05-25T17:07:47.779Z,100090.94
2019-05-25T17:10:18.036Z,100083.44
2019-05-25T17:12:48.162Z,100082.98
2019-05-25T17:15:18.409Z,100082.17
2019-05-25T17:17:48.555Z,100085.44
2019-05-25T17:20:19.112Z,100082.50
2019-05-25T17:22:49.223Z,100086.39
2019-05-25T17:25:19.382Z,100082.98
2019-05-25T17:27:49.544Z,100088.27
2019-05-25T17:30:35.951Z,100085.23
2019-05-25T17:33:07.067Z,100088.11
2019-05-25T17:35:37.191Z,100084.86
2019-05-25T17:38:07.670Z,100081.32
2019-05-25T17:40:38.116Z,100079.15
2019-05-25T17:43:08.303Z,100080.84
2019-05-25T17:45:38.437Z,100088.34
2019-05-25T17:48:08.684Z,100078.66
2019-05-25T17:50:38.853Z,100081.23
2019-05-25T17:53:08.979Z,100080.56
2019-05-25T17:55:39.113Z,100089.60
2019-05-25T17:58:09.253Z,100085.01
2019-05-25T18:00:46.264Z,100073.09
2019-05-25T18:03:16.389Z,100078.06
2019-05-25T18:05:47.353Z,100076.48
2019-05-25T18:08:17.524Z,100074.78
2019-05-25T18:10:55.049Z,100068.84
2019-05-25T18:13:19.556Z,100068.52
2019-05-25T18:15:49.750Z,100060.36
2019-05-25T18:18:19.880Z,100060.02
2019-05-25T18:20:50.299Z,100058.84
2019-05-25T18:23:20.984Z,100059.02
2019-05-25T18:25:51.205Z,100051.52
2019-05-25T18:28:21.365Z,100055.09
2019-05-25T18:30:51.557Z,100052.38
2019-05-25T18:33:22.906Z,100052.05
2019-05-25T18:35:53.063Z,100054.42
2019-05-25T18:38:23.226Z,100056.46
2019-05-25T18:40:53.359Z,100055.96
2019-05-25T18:43:23.660Z,100055.97
2019-05-25T18:45:53.881Z,100059.88
2019-05-25T18:48:24.002Z,100064.09
2019-05-25T18:50:54.242Z,100069.02
2019-05-25T18:53:24.454Z,100066.97
2019-05-25T18:55:54.687Z,100065.02
2019-05-25T18:58:24.817Z,100073.00
2019-05-25T19:00:55.035Z,100065.16
2019-05-25T19:03:25.321Z,100062.06
2019-05-25T19:05:55.595Z,100069.52
2019-05-25T19:08:25.805Z,100075.09
2019-05-25T19:10:55.943Z,100068.96
2019-05-25T19:13:26.095Z,100069.80
2019-05-25T19:15:56.220Z,100072.58
2019-05-25T19:18:26.345Z,100067.64
2019-05-25T19:20:56.528Z,100066.53
2019-05-25T19:23:26.684Z,100068.16
2019-05-25T19:25:56.856Z,100058.92
2019-05-25T19:28:26.996Z,100058.92
2019-05-25T19:30:58.287Z,100057.48
2019-05-25T19:33:28.597Z,100055.87
2019-05-25T19:35:58.768Z,100050.17
2019-05-25T19:38:29.008Z,100049.08
2019-05-25T19:40:59.206Z,100053.27
2019-05-25T19:43:29.427Z,100038.91
2019-05-25T19:45:59.680Z,100028.83
2019-05-25T19:48:29.844Z,100034.97
2019-05-25T19:51:01.891Z,100040.02
2019-05-25T19:53:32.087Z,100035.00
2019-05-25T19:56:02.395Z,100045.04
2019-05-25T19:58:32.626Z,100048.91
2019-05-25T20:01:02.912Z,100043.28
2019-05-25T20:03:33.053Z,100036.98
2019-05-25T20:06:03.224Z,100032.73
2019-05-25T20:08:33.375Z,100023.76
2019-05-25T20:11:03.521Z,100021.13
2019-05-25T20:13:33.695Z,100023.48
2019-05-25T20:16:03.907Z,100018.38
2019-05-25T20:18:34.022Z,100015.64
2019-05-25T20:21:04.164Z,100013.20
2019-05-25T20:23:34.300Z,100018.19
2019-05-25T20:26:04.454Z,100016.28
2019-05-25T20:28:34.581Z,100013.45
2019-05-25T20:31:06.392Z,100015.94
2019-05-25T20:33:36.520Z,100007.23
2019-05-25T20:36:06.672Z,100005.92
2019-05-25T20:38:36.817Z,100006.33
2019-05-25T20:41:06.972Z,100002.77
2019-05-25T20:43:37.107Z,100004.91
2019-05-25T20:46:07.242Z,99995.72
2019-05-25T20:48:37.377Z,99993.59
2019-05-25T20:51:07.536Z,99991.81
2019-05-25T20:53:37.759Z,99984.36
2019-05-25T20:56:07.888Z,99982.66
2019-05-25T20:58:39.322Z,99986.10
2019-05-25T21:01:09.469Z,99988.45
2019-05-25T21:03:39.657Z,99986.45
2019-05-25T21:06:10.758Z,99982.51
2019-05-25T21:08:40.875Z,99984.70
2019-05-25T21:11:11.027Z,99991.47
2019-05-25T21:13:41.461Z,99987.41
2019-05-25T21:16:11.678Z,99987.91
2019-05-25T21:18:41.816Z,99986.91
2019-05-25T21:21:11.951Z,99989.04
2019-05-25T21:23:42.075Z,99987.64
2019-05-25T21:26:12.205Z,99988.48
2019-05-25T21:28:42.325Z,99988.99
2019-05-25T21:31:12.465Z,99984.78
2019-05-25T21:33:42.596Z,99983.58
2019-05-25T21:36:14.344Z,99979.88
2019-05-25T21:38:44.459Z,99978.48
2019-05-25T21:41:14.579Z,99970.63
2019-05-25T21:43:44.694Z,99970.98
2019-05-25T21:46:14.871Z,99971.13
2019-05-25T21:48:44.995Z,99970.59
2019-05-25T21:51:15.126Z,99970.89
2019-05-25T21:53:45.252Z,99964.58
2019-05-25T21:56:15.375Z,99966.11
2019-05-25T21:58:45.507Z,99962.16
2019-05-25T22:01:15.791Z,99959.76
2019-05-25T22:03:45.935Z,99958.05
2019-05-25T22:06:24.147Z,99959.41
2019-05-25T22:08:47.896Z,99952.90
2019-05-25T22:11:18.053Z,99957.66
2019-05-25T22:13:48.186Z,99954.31
2019-05-25T22:16:18.322Z,99954.73
2019-05-25T22:18:48.423Z,99950.48
2019-05-25T22:21:18.543Z,99946.71
2019-05-25T22:23:48.663Z,99938.02
2019-05-25T22:26:18.780Z,99941.02
2019-05-25T22:28:48.922Z,99914.41
2019-05-25T22:31:19.082Z,99934.80
2019-05-25T22:33:49.215Z,99929.16
2019-05-25T22:36:19.338Z,99927.85
2019-05-25T22:38:49.476Z,99918.20
2019-05-25T22:41:20.076Z,99916.00
2019-05-25T22:43:50.395Z,99914.53
2019-05-25T22:46:20.524Z,99914.12
2019-05-25T22:48:50.651Z,99912.42
2019-05-25T22:51:20.778Z,99903.12
2019-05-25T22:53:50.936Z,99896.61
2019-05-25T22:56:21.060Z,99890.80
2019-05-25T22:58:51.189Z,99887.83
2019-05-25T23:01:21.307Z,99889.03
2019-05-25T23:03:51.441Z,99884.98
2019-05-25T23:06:21.622Z,99886.24
2019-05-25T23:08:52.823Z,99882.06
2019-05-25T23:11:22.950Z,99877.52
2019-05-25T23:13:53.074Z,99871.08
2019-05-25T23:16:23.223Z,99866.59
2019-05-25T23:18:53.779Z,99863.63
2019-05-25T23:21:23.943Z,99863.48
2019-05-25T23:23:54.137Z,99854.41
2019-05-25T23:26:24.263Z,99851.51
2019-05-25T23:28:55.470Z,99854.28
2019-05-25T23:31:25.598Z,99841.11
2019-05-25T23:33:55.728Z,99843.11
2019-05-25T23:36:26.049Z,99838.43
2019-05-25T23:38:56.156Z,99831.70
2019-05-25T23:41:26.287Z,99826.02
2019-05-25T23:43:59.679Z,99815.94
2019-05-25T23:46:28.302Z,99817.30
2019-05-25T23:48:58.433Z,99811.48
2019-05-25T23:51:28.584Z,99807.09
2019-05-25T23:53:58.725Z,99804.33
2019-05-25T23:56:28.847Z,99797.98
2019-05-25T23:58:58.962Z,99796.84
